Time;durP1;ratioP1;P1;durP2;ratioP2;P2;SDS_P1;SDS_P2;PMS_P1;PMS_P2;Temp;Humidity;BMP_temperature;BMP_pressure;BME280_temperature;BME280_humidity;BME280_pressure;Samples;Min_cycle;Max_cycle;Signal;HPM_P1;HPM_P2
2023/03/16 07:07:48;;;;;;;22.02;20.63;;;14.60;99.90;;;;;;5115678;27;20887;-91
2023/03/16 07:10:16;;;;;;;22.63;20.75;;;14.50;99.90;;;;;;5117035;28;20063;-89
2023/03/16 07:12:44;;;;;;;23.08;20.88;;;14.30;99.90;;;;;;5113522;28;20054;-94
2023/03/16 07:15:11;;;;;;;22.38;20.55;;;14.50;99.90;;;;;;5083926;28;20033;-92
2023/03/16 07:17:38;;;;;;;21.08;19.60;;;14.40;99.90;;;;;;5073762;28;20035;-90
2023/03/16 07:20:09;;;;;;;21.85;20.35;;;14.20;99.90;;;;;;5073793;28;20032;-92
2023/03/16 07:22:38;;;;;;;21.80;20.00;;;14.50;99.90;;;;;;5073651;28;20021;-90
2023/03/16 07:25:07;;;;;;;21.10;19.40;;;14.80;99.90;;;;;;5090119;28;20035;-92
2023/03/16 07:27:33;;;;;;;21.73;20.23;;;14.70;99.90;;;;;;5090196;28;20040;-90
2023/03/16 07:30:05;;;;;;;22.05;20.17;;;14.60;99.90;;;;;;5106511;28;20426;-90
2023/03/16 07:32:34;;;;;;;21.60;20.10;;;14.50;99.90;;;;;;5073682;28;20028;-91
2023/03/16 07:35:00;;;;;;;22.05;20.55;;;14.50;99.90;;;;;;5090009;28;20477;-91
2023/03/16 07:37:31;;;;;;;21.50;20.17;;;14.40;99.90;;;;;;5073780;28;20032;-90
2023/03/16 07:40:00;;;;;;;21.67;19.77;;;14.40;99.90;;;;;;5073737;28;20036;-91
2023/03/16 07:42:27;;;;;;;21.98;20.42;;;14.60;99.90;;;;;;5090449;28;20378;-90
2023/03/16 07:45:20;;;;;;;22.30;20.65;;;14.70;99.90;;;;;;5088987;28;20481;-90
2023/03/16 07:47:47;;;;;;;22.50;20.73;;;14.70;99.90;;;;;;5073042;28;20397;-93
2023/03/16 07:50:26;;;;;;;22.45;20.63;;;14.70;99.90;;;;;;5091744;28;20024;-91
2023/03/16 07:52:55;;;;;;;21.75;20.38;;;14.70;99.90;;;;;;5073008;28;20036;-90
2023/03/16 07:55:22;;;;;;;22.80;21.17;;;14.70;99.90;;;;;;5073108;28;20021;-90
2023/03/16 07:57:51;;;;;;;21.92;20.55;;;15.10;99.90;;;;;;5089999;28;20395;-90
2023/03/16 08:00:24;;;;;;;22.38;20.88;;;15.00;99.90;;;;;;5090992;28;20027;-91
2023/03/16 08:02:52;;;;;;;22.27;20.88;;;14.90;99.90;;;;;;5089566;28;20071;-92
2023/03/16 08:05:20;;;;;;;23.65;21.75;;;14.80;99.90;;;;;;5072561;28;20115;-91
2023/03/16 08:08:03;;;;;;;23.42;21.20;;;14.60;99.90;;;;;;5091476;28;20386;-93
2023/03/16 08:10:32;;;;;;;22.75;21.35;;;14.90;99.90;;;;;;5092435;28;20070;-90
2023/03/16 08:13:05;;;;;;;23.30;21.60;;;15.10;99.90;;;;;;5092781;28;20534;-86
2023/03/16 08:15:33;;;;;;;23.25;21.13;;;15.10;99.90;;;;;;5075001;28;20098;-90
2023/03/16 08:18:07;;;;;;;23.00;21.33;;;14.90;99.90;;;;;;5084851;28;20029;-88
2023/03/16 08:20:35;;;;;;;23.40;21.58;;;15.00;99.90;;;;;;5061525;28;20024;-86
2023/03/16 08:23:02;;;;;;;23.92;21.83;;;15.10;99.90;;;;;;5075686;28;20384;-83
2023/03/16 08:25:38;;;;;;;22.23;20.43;;;14.70;99.90;;;;;;5059675;28;20028;-83
2023/03/16 08:28:16;;;;;;;20.58;18.67;;;14.30;99.90;;;;;;5075494;28;20306;-84
2023/03/16 08:30:47;;;;;;;20.52;18.92;;;13.90;99.90;;;;;;5058896;28;20039;-83
2023/03/16 08:33:45;;;;;;;20.08;18.52;;;14.20;99.90;;;;;;5074321;28;20531;-81
2023/03/16 08:36:16;;;;;;;20.70;18.98;;;14.20;99.90;;;;;;5076610;28;20134;-81
2023/03/16 08:38:46;;;;;;;20.85;19.52;;;13.80;99.90;;;;;;5058909;28;20068;-89
2023/03/16 08:41:15;;;;;;;21.75;20.23;;;13.60;99.90;;;;;;5075575;28;20025;-88
2023/03/16 08:43:43;;;;;;;22.20;20.35;;;14.20;99.90;;;;;;5075454;28;20041;-87
2023/03/16 08:46:10;;;;;;;21.83;20.35;;;14.60;99.90;;;;;;5075251;28;20033;-90
2023/03/16 08:48:57;;;;;;;22.92;21.20;;;15.00;99.90;;;;;;5061320;28;20155;-90
2023/03/16 08:51:26;;;;;;;22.50;20.88;;;14.80;99.90;;;;;;5068841;28;20477;-89
2023/03/16 08:53:54;;;;;;;22.77;20.75;;;14.80;99.90;;;;;;5075970;28;20379;-90
2023/03/16 08:56:20;;;;;;;22.65;21.05;;;14.70;99.90;;;;;;5076356;28;20028;-88
2023/03/16 08:58:47;;;;;;;22.30;20.70;;;14.70;99.90;;;;;;5077668;28;20031;-88
2023/03/16 09:01:19;;;;;;;22.20;20.77;;;14.60;99.90;;;;;;5068600;28;20024;-90
2023/03/16 09:03:45;;;;;;;22.77;20.95;;;14.50;99.90;;;;;;5094036;28;20400;-89
2023/03/16 09:06:14;;;;;;;22.77;21.10;;;14.40;99.90;;;;;;5093618;28;20040;-87
2023/03/16 09:08:40;;;;;;;22.02;20.55;;;14.30;99.90;;;;;;5077159;28;20024;-92
2023/03/16 12:59:58;;;;;;;23.67;22.00;;;13.60;99.90;;;;;;6121158;22;2185314;-86
2023/03/16 13:02:29;;;;;;;23.65;21.63;;;13.60;99.90;;;;;;6259522;22;20022;-86
2023/03/16 13:05:01;;;;;;;23.48;21.77;;;13.50;99.90;;;;;;6258451;22;20010;-87
2023/03/16 13:07:30;;;;;;;23.58;21.63;;;13.30;99.90;;;;;;6254785;22;20007;-88
2023/03/16 13:10:08;;;;;;;23.25;21.73;;;12.90;99.90;;;;;;6271944;22;20044;-86
2023/03/16 13:12:37;;;;;;;23.25;21.58;;;12.90;99.90;;;;;;6287953;22;20003;-86
2023/03/16 13:15:20;;;;;;;23.77;21.58;;;13.30;99.90;;;;;;6287497;22;20003;-86
2023/03/16 13:17:48;;;;;;;24.40;22.38;;;13.50;99.90;;;;;;6287706;22;20007;-87
2023/03/16 13:20:26;;;;;;;23.83;22.25;;;13.60;99.90;;;;;;6287802;22;20007;-88
2023/03/16 13:23:23;;;;;;;23.73;21.80;;;13.60;99.90;;;;;;6287919;22;20034;-88
2023/03/16 13:26:21;;;;;;;23.50;21.65;;;13.50;99.90;;;;;;6287153;22;20010;-87
2023/03/16 13:28:53;;;;;;;23.00;21.58;;;13.40;99.90;;;;;;6287149;22;20013;-87
2023/03/16 13:31:40;;;;;;;23.17;21.67;;;13.10;99.90;;;;;;6287534;22;20427;-88
2023/03/16 13:34:13;;;;;;;23.63;21.52;;;13.10;99.90;;;;;;6287695;22;20007;-86
2023/03/16 13:36:44;;;;;;;24.30;22.50;;;13.10;99.90;;;;;;6287835;22;20007;-87
2023/03/16 13:39:19;;;;;;;24.27;22.00;;;13.30;99.90;;;;;;6287378;22;20010;-87
2023/03/16 16:54:35;;;;;;;26.77;24.80;;;11.30;99.90;;;;;;6332469;22;20007;-94
2023/03/16 22:07:39;;;;;;;26.25;24.05;;;10.00;99.90;;;;;;6280670;22;20030;-94
